Time;durP1;ratioP1;P1;durP2;ratioP2;P2;SDS_P1;SDS_P2;PMS_P1;PMS_P2;Temp;Humidity;BMP_temperature;BMP_pressure;BME280_temperature;BME280_humidity;BME280_pressure;Samples;Min_cycle;Max_cycle;Signal;HPM_P1;HPM_P2
2022/04/09 00:00:21;;;;;;;0.85;0.85;;;11.30;99.90;;;;;;5003046;28;20307;-35
2022/04/09 00:02:46;;;;;;;0.80;0.80;;;11.30;99.90;;;;;;5000459;28;20439;-34
2022/04/09 00:05:13;;;;;;;1.63;0.88;;;11.20;99.90;;;;;;5004881;28;20026;-35
2022/04/09 00:07:39;;;;;;;0.90;0.90;;;11.00;99.90;;;;;;5007340;28;20453;-34
2022/04/09 00:10:07;;;;;;;0.70;0.70;;;10.90;99.90;;;;;;5004738;28;20121;-35
2022/04/09 00:12:33;;;;;;;0.80;0.80;;;10.70;99.90;;;;;;4995315;28;20443;-35
2022/04/09 00:14:59;;;;;;;1.73;1.00;;;10.70;99.90;;;;;;4999721;28;20044;-34
2022/04/09 00:17:25;;;;;;;1.73;1.08;;;10.70;99.90;;;;;;5000644;28;20064;-34
2022/04/09 00:19:52;;;;;;;0.90;0.90;;;10.60;99.90;;;;;;5004107;28;20121;-35
2022/04/09 00:22:18;;;;;;;0.57;0.57;;;10.40;99.90;;;;;;4998436;28;20030;-34
2022/04/09 00:24:43;;;;;;;2.58;0.60;;;9.60;99.90;;;;;;5001038;28;20132;-35
2022/04/09 00:27:09;;;;;;;0.80;0.50;;;8.90;99.90;;;;;;5008821;28;20109;-33
2022/04/09 00:29:35;;;;;;;0.30;0.30;;;8.30;99.90;;;;;;5009523;28;20065;-34
2022/04/09 00:32:01;;;;;;;1.25;0.40;;;8.00;99.90;;;;;;5005733;28;20037;-33
2022/04/09 00:34:27;;;;;;;0.40;0.40;;;7.90;99.90;;;;;;5007093;28;20557;-35
2022/04/09 00:36:52;;;;;;;0.30;0.30;;;7.60;99.90;;;;;;5009583;28;20034;-33
2022/04/09 00:39:18;;;;;;;0.40;0.40;;;7.50;99.90;;;;;;5009395;28;20121;-35
2022/04/09 00:41:47;;;;;;;0.30;0.30;;;7.30;99.90;;;;;;5008151;28;20041;-33
2022/04/09 00:44:22;;;;;;;0.28;0.28;;;7.10;99.90;;;;;;5000927;28;20378;-34
2022/04/09 00:46:48;;;;;;;0.30;0.30;;;6.80;99.90;;;;;;5006509;28;20034;-33
2022/04/09 00:49:15;;;;;;;0.30;0.30;;;6.80;99.90;;;;;;5010273;28;20074;-34
2022/04/09 00:51:43;;;;;;;0.30;0.30;;;6.70;99.90;;;;;;4991582;28;20061;-34
2022/04/09 00:54:11;;;;;;;0.60;0.60;;;6.60;99.90;;;;;;4997888;28;20045;-34
2022/04/09 00:56:38;;;;;;;0.90;0.40;;;6.40;99.90;;;;;;5009020;28;20032;-34
2022/04/09 00:59:11;;;;;;;16.33;1.08;;;6.20;99.90;;;;;;5008236;28;20857;-35
2022/04/09 01:01:39;;;;;;;0.77;0.40;;;6.10;99.90;;;;;;5004556;28;20041;-34
2022/04/09 01:04:10;;;;;;;0.40;0.40;;;5.90;99.90;;;;;;5001366;28;20411;-33
2022/04/09 01:06:37;;;;;;;0.50;0.50;;;5.70;99.90;;;;;;5005705;28;20083;-33
2022/04/09 01:09:04;;;;;;;0.30;0.30;;;5.50;99.90;;;;;;5007142;28;20388;-34
2022/04/09 01:11:30;;;;;;;0.50;0.50;;;5.30;99.90;;;;;;4999706;28;20041;-34
2022/04/09 01:13:56;;;;;;;0.65;0.65;;;5.00;99.90;;;;;;5006069;28;20030;-34
2022/04/09 01:16:22;;;;;;;0.40;0.40;;;4.80;99.90;;;;;;5006746;28;20113;-34
2022/04/09 01:18:48;;;;;;;0.30;0.30;;;4.90;99.90;;;;;;5003055;28;20046;-33
2022/04/09 01:21:13;;;;;;;0.40;0.40;;;4.80;99.90;;;;;;5005204;28;20377;-35
2022/04/09 01:23:39;;;;;;;0.50;0.50;;;4.70;99.90;;;;;;5001136;28;20649;-33
2022/04/09 01:26:06;;;;;;;0.50;0.50;;;4.50;99.90;;;;;;5004549;28;20033;-33
2022/04/09 01:28:33;;;;;;;0.40;0.40;;;4.40;99.90;;;;;;5007046;28;20037;-34
2022/04/09 01:30:59;;;;;;;0.45;0.45;;;4.20;99.90;;;;;;4993019;28;20057;-34
2022/04/09 01:33:25;;;;;;;0.50;0.50;;;4.20;99.90;;;;;;5001513;28;20029;-33
2022/04/09 01:35:51;;;;;;;0.43;0.43;;;4.10;99.90;;;;;;5003684;28;20437;-33
2022/04/09 01:38:18;;;;;;;0.40;0.40;;;4.10;99.90;;;;;;5006762;28;21091;-34
2022/04/09 01:40:43;;;;;;;0.50;0.50;;;4.20;99.90;;;;;;5004890;28;20020;-33
2022/04/09 01:43:09;;;;;;;0.50;0.50;;;4.20;99.90;;;;;;5002263;28;20686;-33
2022/04/09 01:45:35;;;;;;;0.50;0.50;;;4.20;99.90;;;;;;5007266;28;20497;-33
2022/04/09 01:48:01;;;;;;;0.40;0.40;;;4.20;99.90;;;;;;5007881;28;20141;-34
2022/04/09 01:50:27;;;;;;;0.50;0.50;;;4.10;99.90;;;;;;5005665;28;20430;-35
2022/04/09 01:52:54;;;;;;;0.75;0.55;;;4.10;99.90;;;;;;5006828;28;20050;-33
2022/04/09 01:55:20;;;;;;;0.40;0.40;;;4.00;99.90;;;;;;5001860;28;20310;-34
2022/04/09 01:57:47;;;;;;;0.50;0.50;;;3.90;99.90;;;;;;5008201;28;20558;-35
2022/04/09 02:00:14;;;;;;;1.02;0.50;;;3.80;99.90;;;;;;5009305;28;20030;-33
2022/04/09 02:02:41;;;;;;;0.60;0.60;;;3.80;99.90;;;;;;5004921;28;20955;-34
2022/04/09 02:05:07;;;;;;;0.60;0.60;;;3.70;99.90;;;;;;5010378;28;20473;-35
2022/04/09 02:07:32;;;;;;;0.60;0.60;;;3.70;99.90;;;;;;5004970;28;20042;-33
2022/04/09 02:09:58;;;;;;;0.63;0.63;;;3.70;99.90;;;;;;5006176;28;20040;-34
2022/04/09 02:12:24;;;;;;;0.68;0.68;;;3.70;99.90;;;;;;5008683;28;20096;-34
2022/04/09 02:14:49;;;;;;;0.70;0.70;;;3.70;99.90;;;;;;4999970;28;20061;-34
2022/04/09 02:17:15;;;;;;;0.60;0.60;;;3.60;99.90;;;;;;5007877;28;20084;-34
2022/04/09 02:19:41;;;;;;;0.70;0.70;;;3.60;99.90;;;;;;5004501;28;20030;-33
2022/04/09 02:22:06;;;;;;;0.70;0.70;;;3.60;99.90;;;;;;5008349;28;20029;-33
2022/04/09 02:24:32;;;;;;;0.80;0.80;;;3.60;99.90;;;;;;5003736;28;20040;-33
2022/04/09 02:26:58;;;;;;;1.20;0.80;;;3.60;99.90;;;;;;5003694;28;20776;-33
2022/04/09 02:29:24;;;;;;;0.98;0.98;;;3.50;99.90;;;;;;5009587;28;20034;-33
2022/04/09 02:31:49;;;;;;;1.20;1.00;;;3.50;99.90;;;;;;5004743;28;21584;-33
2022/04/09 02:34:15;;;;;;;0.80;0.80;;;3.50;99.90;;;;;;5007834;28;20026;-35
2022/04/09 02:36:41;;;;;;;0.90;0.90;;;3.50;99.90;;;;;;5007763;28;20093;-34
2022/04/09 02:39:07;;;;;;;0.90;0.90;;;3.50;99.90;;;;;;5004896;28;20592;-33
2022/04/09 02:41:33;;;;;;;1.10;1.10;;;3.50;99.90;;;;;;5009232;28;20044;-35
2022/04/09 02:43:59;;;;;;;1.00;1.00;;;3.50;99.90;;;;;;5006528;28;20034;-35
2022/04/09 02:46:25;;;;;;;0.95;0.95;;;3.50;99.90;;;;;;5002718;28;20022;-33
2022/04/09 02:48:51;;;;;;;1.20;1.20;;;3.60;99.90;;;;;;5005052;28;20049;-34
2022/04/09 02:51:17;;;;;;;0.93;0.93;;;3.50;99.90;;;;;;5006057;28;20030;-33
2022/04/09 02:53:46;;;;;;;1.92;0.98;;;3.50;99.90;;;;;;5005371;28;20030;-34
2022/04/09 02:56:12;;;;;;;1.10;1.10;;;3.40;99.90;;;;;;5000496;28;20025;-34
2022/04/09 02:58:38;;;;;;;1.30;1.20;;;3.40;99.90;;;;;;4998107;28;20485;-33
2022/04/09 03:01:03;;;;;;;0.98;0.98;;;3.40;99.90;;;;;;5003797;28;20124;-34
2022/04/09 03:03:29;;;;;;;1.10;1.10;;;3.40;99.90;;;;;;5004763;28;20787;-34
2022/04/09 03:05:54;;;;;;;1.10;1.10;;;3.40;99.90;;;;;;5006631;28;20052;-33
2022/04/09 03:08:20;;;;;;;0.68;0.68;;;3.40;99.90;;;;;;5003742;28;20034;-35
2022/04/09 03:10:46;;;;;;;0.98;0.98;;;3.30;99.90;;;;;;5004598;28;20058;-33
2022/04/09 03:13:12;;;;;;;1.08;1.08;;;3.30;99.90;;;;;;5006095;28;20022;-34
2022/04/09 03:15:37;;;;;;;1.10;1.10;;;3.30;99.90;;;;;;4998701;28;20026;-35
2022/04/09 03:18:03;;;;;;;0.60;0.60;;;3.30;99.90;;;;;;5003656;28;20033;-34
2022/04/09 03:20:29;;;;;;;1.17;1.17;;;3.20;99.90;;;;;;5003216;28;20045;-33
2022/04/09 03:22:54;;;;;;;0.93;0.73;;;3.20;99.90;;;;;;5007850;28;20116;-34
2022/04/09 03:25:20;;;;;;;1.20;1.20;;;3.20;99.90;;;;;;5004040;28;20430;-33
2022/04/09 03:27:46;;;;;;;1.10;1.10;;;3.20;99.90;;;;;;5000481;28;20104;-34
2022/04/09 03:30:12;;;;;;;1.25;1.15;;;3.20;99.90;;;;;;4990787;28;20382;-35
2022/04/09 03:32:39;;;;;;;1.30;1.20;;;3.10;99.90;;;;;;5005295;28;20052;-33
2022/04/09 03:35:06;;;;;;;1.40;1.30;;;3.10;99.90;;;;;;4999450;28;20029;-34
2022/04/09 03:37:36;;;;;;;2.05;1.67;;;3.20;99.90;;;;;;5000715;28;20057;-33
2022/04/09 03:40:04;;;;;;;7.65;1.60;;;3.10;99.90;;;;;;4999805;28;20033;-34
2022/04/09 03:42:32;;;;;;;1.13;1.02;;;3.10;99.90;;;;;;5006494;28;20048;-34
2022/04/09 03:44:58;;;;;;;1.17;1.10;;;3.00;99.90;;;;;;5001865;28;20086;-34
2022/04/09 03:47:24;;;;;;;1.02;0.93;;;3.00;99.90;;;;;;5005072;28;20109;-33
2022/04/09 03:49:49;;;;;;;1.45;1.35;;;3.00;99.90;;;;;;5003230;28;20042;-32
2022/04/09 03:52:15;;;;;;;1.60;1.50;;;3.00;99.90;;;;;;5003629;28;20022;-33
2022/04/09 03:54:41;;;;;;;1.45;1.35;;;3.00;99.90;;;;;;5001912;28;20148;-33
2022/04/09 03:57:09;;;;;;;1.08;1.08;;;3.00;99.90;;;;;;5003686;28;20022;-34
2022/04/09 03:59:35;;;;;;;1.53;1.43;;;2.90;99.90;;;;;;5004147;28;20037;-32
2022/04/09 04:02:01;;;;;;;1.30;1.30;;;2.80;99.90;;;;;;5004200;28;20053;-35
2022/04/09 04:04:26;;;;;;;1.05;1.00;;;2.90;99.90;;;;;;5004668;28;20030;-34
2022/04/09 04:06:52;;;;;;;1.40;1.30;;;2.80;99.90;;;;;;5007854;28;20471;-35
2022/04/09 04:09:18;;;;;;;1.40;1.30;;;2.90;99.90;;;;;;5007133;28;20104;-34
2022/04/09 04:11:44;;;;;;;1.58;1.48;;;2.80;99.90;;;;;;5001859;28;20029;-34
2022/04/09 04:14:10;;;;;;;1.60;1.50;;;2.80;99.90;;;;;;4988440;28;20103;-33
2022/04/09 04:16:36;;;;;;;1.02;1.02;;;2.80;99.90;;;;;;5004780;28;20018;-34
2022/04/09 04:19:01;;;;;;;1.17;1.17;;;2.90;99.90;;;;;;5007464;28;20035;-35
2022/04/09 04:21:27;;;;;;;2.40;1.73;;;2.80;99.90;;;;;;5004382;28;20384;-34
2022/04/09 04:23:53;;;;;;;1.45;1.40;;;2.90;99.90;;;;;;4999526;28;20508;-33
2022/04/09 04:26:19;;;;;;;1.58;1.33;;;2.80;99.90;;;;;;5001923;28;20030;-34
2022/04/09 04:28:48;;;;;;;1.35;1.35;;;2.80;99.90;;;;;;5004724;28;20030;-34
2022/04/09 04:31:17;;;;;;;1.40;1.35;;;2.80;99.90;;;;;;5005029;28;20061;-34
2022/04/09 04:33:42;;;;;;;1.77;1.63;;;2.70;99.90;;;;;;5002164;28;20030;-35
2022/04/09 04:36:08;;;;;;;1.38;1.13;;;2.70;99.90;;;;;;5005925;28;20467;-34
2022/04/09 04:38:34;;;;;;;1.63;1.52;;;2.80;99.90;;;;;;5006122;28;20490;-34
2022/04/09 04:41:01;;;;;;;2.25;2.05;;;2.70;99.90;;;;;;5007154;28;20030;-33
2022/04/09 04:43:26;;;;;;;1.33;1.23;;;2.70;99.90;;;;;;4999665;28;20127;-34
2022/04/09 04:45:52;;;;;;;3.10;1.90;;;2.70;99.90;;;;;;5006018;28;20061;-34
2022/04/09 04:48:20;;;;;;;2.97;2.17;;;2.70;99.90;;;;;;5005199;28;20666;-34
2022/04/09 04:50:46;;;;;;;2.33;2.13;;;2.70;99.90;;;;;;5006494;28;20033;-35
2022/04/09 04:53:12;;;;;;;2.22;2.08;;;2.70;99.90;;;;;;4998966;28;20288;-33
2022/04/09 04:55:37;;;;;;;2.58;2.10;;;2.70;99.90;;;;;;5004057;28;20029;-34
2022/04/09 04:58:03;;;;;;;1.25;1.15;;;2.70;99.90;;;;;;5005033;28;20026;-33
2022/04/09 05:00:29;;;;;;;2.60;2.38;;;2.60;99.90;;;;;;5000255;28;20037;-33
2022/04/09 05:02:55;;;;;;;1.63;1.50;;;2.50;99.90;;;;;;5001282;28;20552;-35
2022/04/09 05:05:21;;;;;;;1.90;1.77;;;2.40;99.90;;;;;;5001516;28;20040;-34
2022/04/09 05:07:49;;;;;;;3.10;2.30;;;2.30;99.90;;;;;;5003258;28;20067;-34
2022/04/09 05:10:17;;;;;;;1.95;1.75;;;2.40;99.90;;;;;;4999828;28;20037;-34
2022/04/09 05:12:43;;;;;;;2.20;1.85;;;2.30;99.90;;;;;;5004496;28;20034;-33
2022/04/09 05:15:12;;;;;;;3.33;2.65;;;2.30;99.90;;;;;;5001569;28;20037;-35
2022/04/09 05:17:38;;;;;;;3.00;2.25;;;2.40;99.90;;;;;;5005296;28;20069;-34
2022/04/09 05:20:06;;;;;;;3.10;2.53;;;2.50;99.90;;;;;;5007417;28;20395;-33
2022/04/09 05:22:32;;;;;;;3.50;2.60;;;2.50;99.90;;;;;;5011149;28;20061;-32
2022/04/09 05:24:58;;;;;;;4.32;2.08;;;2.50;99.90;;;;;;5003212;28;20547;-35
2022/04/09 05:27:24;;;;;;;3.00;2.55;;;2.60;99.90;;;;;;4992601;28;20040;-34
2022/04/09 05:29:50;;;;;;;2.47;2.28;;;2.60;99.90;;;;;;5007674;28;20073;-35
2022/04/09 05:32:17;;;;;;;4.22;3.22;;;2.60;99.90;;;;;;5005526;28;20030;-34
2022/04/09 05:34:42;;;;;;;2.40;2.20;;;2.60;99.90;;;;;;5008066;28;20025;-35
2022/04/09 05:37:08;;;;;;;3.58;2.53;;;2.60;99.90;;;;;;5006516;28;20029;-35
2022/04/09 05:39:34;;;;;;;3.67;2.70;;;2.60;99.90;;;;;;5005790;28;20040;-34
2022/04/09 05:42:00;;;;;;;2.63;2.42;;;2.60;99.90;;;;;;5006287;28;20065;-35
2022/04/09 05:44:26;;;;;;;3.40;3.00;;;2.60;99.90;;;;;;5008841;28;20069;-34
2022/04/09 05:46:52;;;;;;;3.10;2.53;;;2.60;99.90;;;;;;5011521;28;20057;-34
2022/04/09 05:49:18;;;;;;;4.55;3.55;;;2.60;99.90;;;;;;5004936;28;21737;-34
2022/04/09 05:51:44;;;;;;;7.40;3.78;;;2.60;99.90;;;;;;5009653;28;20099;-36
2022/04/09 05:54:09;;;;;;;4.13;3.78;;;2.70;99.90;;;;;;4996248;28;20641;-36
2022/04/09 05:56:36;;;;;;;1.95;1.80;;;2.70;99.90;;;;;;4999051;28;20046;-33
2022/04/09 05:59:02;;;;;;;4.30;2.35;;;2.70;99.90;;;;;;4997139;28;20211;-35
2022/04/09 06:01:28;;;;;;;6.47;4.55;;;2.70;99.90;;;;;;4998338;28;20064;-36
2022/04/09 06:03:55;;;;;;;5.18;3.40;;;2.80;99.90;;;;;;4999476;28;20033;-34
2022/04/09 06:06:21;;;;;;;6.63;4.40;;;2.80;99.90;;;;;;4998962;28;20033;-34
2022/04/09 06:08:48;;;;;;;3.92;2.25;;;2.80;99.90;;;;;;5000781;28;20030;-35
2022/04/09 06:11:14;;;;;;;9.00;4.50;;;2.80;99.90;;;;;;5002315;28;20052;-36
2022/04/09 06:13:40;;;;;;;7.53;3.95;;;2.80;99.90;;;;;;4997561;28;20042;-35
2022/04/09 06:16:08;;;;;;;5.80;4.57;;;2.80;99.90;;;;;;4996142;28;20034;-34
2022/04/09 06:18:38;;;;;;;5.20;3.10;;;2.90;99.90;;;;;;4996900;28;20053;-34
2022/04/09 06:21:07;;;;;;;4.50;3.92;;;3.00;99.90;;;;;;5000116;28;20645;-35
2022/04/09 06:23:33;;;;;;;2.72;2.50;;;3.00;99.90;;;;;;4998532;28;20509;-35
2022/04/09 06:25:58;;;;;;;4.28;3.13;;;3.20;99.90;;;;;;4996754;28;20030;-35
2022/04/09 06:28:24;;;;;;;7.25;4.03;;;3.20;99.90;;;;;;4996357;28;20772;-35
2022/04/09 06:30:51;;;;;;;4.15;3.58;;;3.20;99.90;;;;;;4995317;28;20447;-36
2022/04/09 06:33:17;;;;;;;2.95;2.75;;;3.20;99.90;;;;;;4995910;28;20483;-36
2022/04/09 06:35:43;;;;;;;4.10;3.25;;;3.10;99.90;;;;;;4998201;28;20033;-34
2022/04/09 06:38:08;;;;;;;3.67;3.08;;;3.10;99.90;;;;;;4995944;28;20068;-35
2022/04/09 06:40:34;;;;;;;6.10;4.75;;;3.20;99.90;;;;;;5000342;28;20060;-34
2022/04/09 06:42:59;;;;;;;5.38;4.85;;;3.20;99.90;;;;;;4998545;28;20041;-34
2022/04/09 06:45:25;;;;;;;7.53;6.05;;;3.20;99.90;;;;;;4997221;28;20029;-35
2022/04/09 06:47:51;;;;;;;4.20;3.05;;;3.20;99.90;;;;;;4997785;28;20472;-35
2022/04/09 06:50:17;;;;;;;4.35;3.92;;;3.20;99.90;;;;;;4996797;28;20033;-34
2022/04/09 06:52:43;;;;;;;6.88;4.65;;;3.20;99.90;;;;;;5000198;28;20037;-35
2022/04/09 06:55:10;;;;;;;7.63;5.88;;;3.20;99.90;;;;;;4997923;28;20033;-35
2022/04/09 06:57:39;;;;;;;9.40;5.57;;;3.20;99.90;;;;;;4993310;28;20041;-35
2022/04/09 07:00:07;;;;;;;10.05;6.63;;;3.20;99.90;;;;;;4999204;28;20025;-36
2022/04/09 07:02:33;;;;;;;9.02;6.05;;;3.40;99.90;;;;;;4992977;28;20046;-34
2022/04/09 07:04:59;;;;;;;7.30;5.25;;;3.40;99.90;;;;;;4995971;28;20045;-34
2022/04/09 07:07:27;;;;;;;8.60;6.95;;;3.60;99.90;;;;;;4995396;28;20026;-34
2022/04/09 07:10:07;;;;;;;11.60;6.60;;;3.70;99.90;;;;;;4996257;28;20034;-34
2022/04/09 07:12:33;;;;;;;7.22;5.55;;;3.80;99.90;;;;;;4997982;28;20072;-34
2022/04/09 07:14:58;;;;;;;8.20;5.32;;;3.80;99.90;;;;;;4993917;28;20026;-35
2022/04/09 07:17:26;;;;;;;10.35;6.22;;;3.70;99.90;;;;;;4996357;28;20880;-33
2022/04/09 07:20:02;;;;;;;8.37;5.17;;;3.90;99.90;;;;;;4995212;28;20132;-34
2022/04/09 07:22:28;;;;;;;6.03;4.45;;;4.00;99.90;;;;;;4996487;28;20042;-36
2022/04/09 07:24:54;;;;;;;5.50;4.28;;;4.10;99.90;;;;;;4994628;28;20053;-35
2022/04/09 07:27:20;;;;;;;4.63;3.83;;;4.10;99.90;;;;;;4994955;28;20041;-35
2022/04/09 07:29:46;;;;;;;5.43;4.20;;;4.10;99.90;;;;;;4995126;28;20409;-34
2022/04/09 07:32:12;;;;;;;8.15;5.43;;;4.10;99.90;;;;;;4993158;28;20521;-34
2022/04/09 07:34:37;;;;;;;6.80;4.43;;;4.10;99.90;;;;;;4992587;28;20113;-35
2022/04/09 07:37:03;;;;;;;6.15;3.60;;;4.10;99.90;;;;;;4991540;28;20034;-35
2022/04/09 07:39:29;;;;;;;4.60;3.60;;;4.10;99.90;;;;;;4992023;28;20841;-35
2022/04/09 07:41:55;;;;;;;7.35;5.15;;;4.20;99.90;;;;;;4995338;28;20041;-35
2022/04/09 07:44:22;;;;;;;5.10;3.80;;;4.20;99.90;;;;;;4998883;28;20034;-35
2022/04/09 07:46:48;;;;;;;5.95;3.78;;;4.20;99.90;;;;;;4995739;28;20045;-35
2022/04/09 07:49:14;;;;;;;3.38;3.13;;;4.30;99.90;;;;;;4994752;28;20042;-36
2022/04/09 07:51:40;;;;;;;5.63;4.03;;;4.50;99.90;;;;;;4996518;28;20310;-35
2022/04/09 07:54:05;;;;;;;2.67;2.47;;;4.30;99.90;;;;;;4996803;28;20026;-36
2022/04/09 07:56:31;;;;;;;4.47;3.90;;;4.20;99.90;;;;;;4994111;28;20034;-34
2022/04/09 07:58:57;;;;;;;2.58;2.35;;;4.20;99.90;;;;;;4996020;28;20030;-36
2022/04/09 08:01:22;;;;;;;3.92;2.72;;;4.10;99.90;;;;;;4994296;28;20038;-34
2022/04/09 08:03:49;;;;;;;2.60;2.33;;;4.00;99.90;;;;;;4995136;28;20544;-34
2022/04/09 08:06:15;;;;;;;2.30;2.10;;;4.00;99.90;;;;;;4996241;28;21248;-34
2022/04/09 08:08:41;;;;;;;4.38;3.38;;;4.10;99.90;;;;;;4993105;28;20091;-35
2022/04/09 08:11:07;;;;;;;3.33;2.80;;;4.20;99.90;;;;;;4981555;28;20038;-36
2022/04/09 08:13:33;;;;;;;2.90;2.63;;;4.20;99.90;;;;;;4993060;28;20040;-36
2022/04/09 08:15:59;;;;;;;5.18;3.75;;;4.20;99.90;;;;;;4997519;28;20038;-36
2022/04/09 08:18:25;;;;;;;3.25;2.83;;;4.20;99.90;;;;;;4993701;28;20772;-33
2022/04/09 08:20:52;;;;;;;3.80;2.47;;;4.30;99.90;;;;;;4998242;28;20126;-34
2022/04/09 08:23:17;;;;;;;4.18;3.78;;;4.30;99.90;;;;;;4993554;28;20030;-36
2022/04/09 08:25:43;;;;;;;3.63;3.20;;;4.40;99.90;;;;;;4995691;28;20124;-34
2022/04/09 08:28:08;;;;;;;3.50;2.30;;;4.60;99.90;;;;;;4994747;28;20034;-34
2022/04/09 08:30:35;;;;;;;3.53;3.00;;;4.50;99.90;;;;;;4992997;28;20030;-36
2022/04/09 08:33:05;;;;;;;3.15;2.75;;;4.40;99.90;;;;;;4994001;28;20054;-35
2022/04/09 08:35:31;;;;;;;2.33;2.17;;;4.30;99.90;;;;;;4992574;28;21069;-35
2022/04/09 08:37:57;;;;;;;3.60;2.65;;;4.20;99.90;;;;;;4996394;28;20022;-36
2022/04/09 08:40:24;;;;;;;2.67;2.47;;;4.50;99.90;;;;;;4999793;28;20084;-35
2022/04/09 08:42:50;;;;;;;4.15;2.75;;;4.80;99.90;;;;;;5004533;28;20056;-35
2022/04/09 08:45:17;;;;;;;2.83;2.60;;;4.90;99.90;;;;;;4993813;28;20033;-34
2022/04/09 08:47:43;;;;;;;5.20;2.83;;;4.80;99.90;;;;;;4996337;28;20116;-35
2022/04/09 08:50:14;;;;;;;2.60;2.05;;;4.60;99.90;;;;;;4999236;28;20036;-33
2022/04/09 08:52:41;;;;;;;2.72;2.53;;;4.70;99.90;;;;;;5001335;28;20498;-35
2022/04/09 08:55:09;;;;;;;3.15;2.33;;;4.80;99.90;;;;;;5001454;28;20022;-34
2022/04/09 08:57:38;;;;;;;7.25;2.47;;;4.90;99.90;;;;;;4997196;28;20080;-35
2022/04/09 09:00:13;;;;;;;3.00;2.70;;;4.90;99.90;;;;;;4995111;28;20044;-33
2022/04/09 09:02:59;;;;;;;4.32;2.53;;;5.10;99.90;;;;;;4997773;28;20065;-35
2022/04/09 09:05:39;;;;;;;3.22;2.50;;;5.20;99.90;;;;;;4999737;28;20034;-33
2022/04/09 09:08:06;;;;;;;4.22;2.83;;;5.30;99.90;;;;;;4995406;28;20030;-34
2022/04/09 09:10:33;;;;;;;6.23;2.90;;;5.30;99.90;;;;;;4998039;28;20061;-35
2022/04/09 09:13:06;;;;;;;2.95;2.65;;;5.00;99.90;;;;;;4996354;28;20662;-34
2022/04/09 09:15:55;;;;;;;3.55;2.33;;;4.70;99.90;;;;;;4997193;28;20022;-35
2022/04/09 09:18:22;;;;;;;3.60;2.05;;;4.80;99.90;;;;;;4998214;28;21029;-33
2022/04/09 09:20:52;;;;;;;3.75;2.00;;;4.70;99.90;;;;;;4998706;28;20080;-35
2022/04/09 09:23:25;;;;;;;3.53;2.35;;;4.80;99.90;;;;;;5002931;28;20026;-35
2022/04/09 09:25:52;;;;;;;1.95;1.67;;;5.00;99.90;;;;;;4998465;28;20034;-34
2022/04/09 09:28:31;;;;;;;3.20;2.90;;;5.20;99.90;;;;;;4997545;28;20038;-34
2022/04/09 09:30:58;;;;;;;2.45;2.25;;;5.20;99.90;;;;;;4994290;28;20589;-35
2022/04/09 09:33:26;;;;;;;4.95;2.92;;;5.20;99.90;;;;;;4998318;28;20948;-35
2022/04/09 09:35:54;;;;;;;2.90;2.50;;;5.40;99.90;;;;;;4996717;28;20049;-34
2022/04/09 09:38:28;;;;;;;3.63;2.53;;;5.40;99.90;;;;;;4994687;28;20053;-34
2022/04/09 09:40:55;;;;;;;1.67;1.60;;;5.40;97.10;;;;;;4997045;28;20491;-34
2022/04/09 09:43:23;;;;;;;2.55;1.83;;;5.30;96.20;;;;;;4996659;28;20594;-34
2022/04/09 09:45:50;;;;;;;4.35;2.45;;;5.20;96.30;;;;;;4999273;28;20037;-33
2022/04/09 09:48:23;;;;;;;3.83;2.15;;;5.30;99.90;;;;;;4993386;28;20037;-35
2022/04/09 09:50:50;;;;;;;4.80;2.38;;;5.50;99.90;;;;;;4997505;28;20426;-33
2022/04/09 09:53:25;;;;;;;3.13;2.00;;;5.50;99.90;;;;;;4996267;28;20399;-35
2022/04/09 09:55:51;;;;;;;1.60;1.50;;;5.50;99.90;;;;;;4997805;28;20044;-35
2022/04/09 09:58:18;;;;;;;2.30;1.50;;;5.40;96.80;;;;;;4993725;28;20018;-33
2022/04/09 10:00:44;;;;;;;3.80;1.67;;;5.20;97.90;;;;;;4994003;28;20045;-33
2022/04/09 10:03:13;;;;;;;2.50;2.30;;;5.00;99.90;;;;;;4998104;28;20299;-35
2022/04/09 10:05:40;;;;;;;1.95;1.85;;;5.10;99.90;;;;;;4994981;28;20038;-34
2022/04/09 10:08:07;;;;;;;2.60;2.25;;;5.00;99.40;;;;;;4997426;28;20116;-33
2022/04/09 10:10:38;;;;;;;2.00;1.88;;;5.00;99.90;;;;;;4996867;28;20487;-34
2022/04/09 10:13:04;;;;;;;2.40;2.20;;;5.10;99.90;;;;;;4993249;28;20026;-34
2022/04/09 10:15:31;;;;;;;3.67;2.35;;;5.30;98.80;;;;;;4997102;28;20044;-34
2022/04/09 10:18:00;;;;;;;1.92;1.65;;;5.40;99.90;;;;;;4994368;28;20511;-34
2022/04/09 10:20:26;;;;;;;2.55;2.20;;;5.40;98.20;;;;;;4997347;28;20195;-33
2022/04/09 10:22:57;;;;;;;2.25;1.98;;;5.30;99.00;;;;;;4999062;28;20029;-34
2022/04/09 10:25:25;;;;;;;4.72;2.00;;;5.00;97.50;;;;;;4995956;28;20430;-33
2022/04/09 10:27:53;;;;;;;4.53;2.75;;;4.90;97.60;;;;;;4997524;28;20026;-33
2022/04/09 10:30:24;;;;;;;3.25;2.55;;;4.90;99.90;;;;;;4994776;28;20033;-33
2022/04/09 10:32:57;;;;;;;4.43;2.55;;;4.80;99.30;;;;;;4997157;28;20046;-33
2022/04/09 10:35:40;;;;;;;3.13;2.03;;;4.80;99.90;;;;;;4993942;28;20120;-34
2022/04/09 10:38:14;;;;;;;2.92;1.77;;;4.80;99.90;;;;;;4995803;28;20024;-33
2022/04/09 10:40:43;;;;;;;1.98;1.88;;;4.90;99.90;;;;;;4994693;28;20033;-32
2022/04/09 10:43:30;;;;;;;1.77;1.67;;;5.10;99.90;;;;;;4995243;28;20471;-33
2022/04/09 10:46:15;;;;;;;6.22;1.77;;;5.20;99.90;;;;;;4983151;28;20041;-33
2022/04/09 10:48:42;;;;;;;2.65;1.88;;;5.40;97.00;;;;;;4990344;28;20096;-35
2022/04/09 10:51:12;;;;;;;1.48;1.35;;;5.30;94.50;;;;;;4988038;28;20037;-34
2022/04/09 10:53:43;;;;;;;3.15;2.05;;;5.30;96.50;;;;;;4995564;28;20010;-35
2022/04/09 10:56:24;;;;;;;6.68;1.67;;;5.60;94.30;;;;;;4993768;28;20022;-34
2022/04/09 10:59:18;;;;;;;4.30;1.85;;;5.50;96.10;;;;;;4996990;28;20037;-35
2022/04/09 11:01:46;;;;;;;3.22;2.00;;;5.30;94.70;;;;;;4994851;28;20037;-34
2022/04/09 11:04:28;;;;;;;;;;;5.50;98.60;;;;;;4993254;28;20062;-35
2022/04/09 11:07:03;;;;;;;3.88;1.60;;;5.50;93.70;;;;;;4991790;28;19913;-34
2022/04/09 11:09:44;;;;;;;2.78;1.38;;;5.40;93.30;;;;;;4992815;28;20092;-35
2022/04/09 11:12:11;;;;;;;2.45;1.88;;;5.40;98.30;;;;;;4997526;28;20065;-33
2022/04/09 11:14:50;;;;;;;7.30;2.10;;;5.70;94.90;;;;;;4994370;28;20071;-34
2022/04/09 11:17:19;;;;;;;;;;;6.30;93.40;;;;;;4994652;28;20050;-33
2022/04/09 11:19:46;;;;;;;3.17;1.95;;;6.50;97.10;;;;;;4992564;28;20330;-33
2022/04/09 11:22:12;;;;;;;1.77;1.65;;;6.30;80.40;;;;;;4992169;28;20471;-33
2022/04/09 11:24:41;;;;;;;3.03;1.58;;;6.20;95.40;;;;;;4994448;28;20040;-35
2022/04/09 11:27:07;;;;;;;2.20;1.50;;;6.20;90.50;;;;;;4989709;28;20386;-34
2022/04/09 11:29:34;;;;;;;3.85;1.88;;;6.00;90.80;;;;;;4997999;28;20040;-35
2022/04/09 11:32:00;;;;;;;5.47;2.22;;;6.00;92.00;;;;;;4996593;28;20065;-35
2022/04/09 11:34:27;;;;;;;1.73;1.60;;;5.90;94.70;;;;;;4997342;28;20128;-34
2022/04/09 11:37:11;;;;;;;1.65;1.55;;;6.10;94.60;;;;;;4998582;28;20034;-34
2022/04/09 11:39:41;;;;;;;5.40;2.53;;;6.00;91.80;;;;;;4996597;28;20030;-32
2022/04/09 11:42:08;;;;;;;2.75;1.80;;;6.00;95.20;;;;;;4998071;28;20041;-33
2022/04/09 11:44:33;;;;;;;2.80;1.35;;;6.10;94.40;;;;;;4997848;28;20077;-34
2022/04/09 11:47:22;;;;;;;2.45;1.88;;;6.00;93.70;;;;;;4998700;28;20044;-33
2022/04/09 11:49:48;;;;;;;4.50;2.28;;;5.70;94.20;;;;;;4994342;28;20030;-33
2022/04/09 11:52:27;;;;;;;2.28;1.33;;;5.50;97.40;;;;;;4995252;28;20049;-33
2022/04/09 11:54:54;;;;;;;2.90;2.63;;;5.50;98.70;;;;;;4994313;28;20022;-33
2022/04/09 11:57:21;;;;;;;5.25;2.53;;;5.70;96.00;;;;;;4998712;28;20144;-32
2022/04/09 11:59:52;;;;;;;5.75;1.90;;;5.80;94.80;;;;;;4994955;28;20029;-33
2022/04/09 12:02:25;;;;;;;1.80;0.95;;;5.90;95.10;;;;;;4997151;28;20076;-34
2022/04/09 12:04:53;;;;;;;3.05;2.00;;;6.20;94.50;;;;;;4992608;28;20079;-34
2022/04/09 12:07:20;;;;;;;1.70;1.60;;;6.30;96.10;;;;;;4995609;28;20033;-33
2022/04/09 12:09:46;;;;;;;1.40;1.30;;;6.40;95.60;;;;;;4995485;28;20030;-32
2022/04/09 12:12:12;;;;;;;5.05;1.50;;;6.60;95.10;;;;;;4994886;28;20410;-34
2022/04/09 12:14:40;;;;;;;4.85;2.25;;;6.30;91.10;;;;;;4994797;28;20045;-35
2022/04/09 12:17:10;;;;;;;1.63;1.40;;;6.30;94.60;;;;;;4994197;28;20494;-35
2022/04/09 12:19:37;;;;;;;2.03;1.67;;;6.50;97.30;;;;;;4997395;28;20038;-34
2022/04/09 12:22:20;;;;;;;2.83;1.77;;;6.70;96.50;;;;;;4992820;28;20029;-33
2022/04/09 12:24:57;;;;;;;2.80;1.67;;;7.10;96.80;;;;;;4999061;28;22276;-34
2022/04/09 12:27:44;;;;;;;5.90;1.75;;;7.20;88.50;;;;;;4997074;28;20068;-33
2022/04/09 12:30:11;;;;;;;3.85;1.60;;;7.20;90.10;;;;;;4998774;28;20471;-33
2022/04/09 12:32:37;;;;;;;5.18;2.05;;;7.20;81.60;;;;;;4999360;28;20038;-33
2022/04/09 12:35:06;;;;;;;2.17;1.48;;;7.00;93.70;;;;;;4999038;28;20032;-32
2022/04/09 12:37:46;;;;;;;1.48;1.38;;;6.90;90.40;;;;;;5003533;28;20348;-32
2022/04/09 12:40:16;;;;;;;2.72;1.17;;;6.60;92.40;;;;;;4998607;28;20034;-35
2022/04/09 12:42:42;;;;;;;1.55;1.40;;;6.30;95.00;;;;;;4995205;28;20096;-34
2022/04/09 12:45:16;;;;;;;1.50;1.40;;;6.20;95.00;;;;;;4998659;28;20125;-34
2022/04/09 12:47:51;;;;;;;1.52;1.00;;;6.50;93.50;;;;;;4995963;28;20465;-34
2022/04/09 12:50:21;;;;;;;2.25;1.58;;;6.90;94.20;;;;;;4999194;28;20041;-34
2022/04/09 12:52:47;;;;;;;4.05;2.08;;;7.10;85.20;;;;;;4997939;28;21654;-34
2022/04/09 12:55:19;;;;;;;2.63;1.60;;;7.00;88.80;;;;;;4996226;28;20057;-34
2022/04/09 12:57:45;;;;;;;1.80;1.58;;;6.90;88.50;;;;;;4999340;28;20033;-33
2022/04/09 13:00:12;;;;;;;1.88;1.58;;;7.20;88.00;;;;;;4997228;28;20045;-33